Austin, Mississippi
Current Conditions -  °F | °C
As of 8:55 AM on Sunday 23 Nov 2014 (Local Time) from KUTA Reporting Station
Moderate Rain Moderate Rain  
Wind Chill: 15°   Ceiling: 1400
Heat Index: 15°   Visibility: 5mi
Dew Point: 13°   Wind: 12mph
Humidity: 88%   Direction: 130°SE
Pressure: 29.68"   Gusts: NA
Location:  34.6827°N, 90.3615°W
Report Text: KUTA 231455Z AUTO 13010KT 5SM RA OVC014 15/13 A2968 RMK AO2 P0003
Loading
Personal Weather Stations






























Interactive Weather Map New forecast layout! Learn more

10-Day Weather Forecast

Advertisements
Track Severe Weather on mobile